sensor_id;sensor_type;location;lat;lon;timestamp;P1;durP1;ratioP1;P2;durP2;ratioP2
45762;SDS011;37512;52.408;13.356;2024-01-15T00:02:36;9.45;;;6.10;;
45762;SDS011;37512;52.408;13.356;2024-01-15T00:06:40;10.32;;;6.38;;
45762;SDS011;37512;52.408;13.356;2024-01-15T00:10:45;8.68;;;5.97;;
45762;SDS011;37512;52.408;13.356;2024-01-15T00:14:46;9.25;;;6.00;;
45762;SDS011;37512;52.408;13.356;2024-01-15T00:18:51;13.88;;;8.88;;
45762;SDS011;37512;52.408;13.356;2024-01-15T00:22:54;5.57;;;4.20;;
45762;SDS011;37512;52.408;13.356;2024-01-15T00:26:58;11.45;;;7.28;;
45762;SDS011;37512;52.408;13.356;2024-01-15T00:30:59;16.83;;;7.38;;
45762;SDS011;37512;52.408;13.356;2024-01-15T00:35:01;12.88;;;7.45;;
45762;SDS011;37512;52.408;13.356;2024-01-15T00:39:04;11.55;;;5.18;;
45762;SDS011;37512;52.408;13.356;2024-01-15T00:43:06;12.00;;;6.30;;
45762;SDS011;37512;52.408;13.356;2024-01-15T00:47:09;10.20;;;6.78;;
45762;SDS011;37512;52.408;13.356;2024-01-15T00:51:10;7.57;;;5.95;;
45762;SDS011;37512;52.408;13.356;2024-01-15T00:55:16;11.07;;;8.02;;
45762;SDS011;37512;52.408;13.356;2024-01-15T00:59:17;11.70;;;7.63;;
45762;SDS011;37512;52.408;13.356;2024-01-15T01:03:19;12.15;;;7.07;;
45762;SDS011;37512;52.408;13.356;2024-01-15T01:07:20;11.55;;;7.10;;
45762;SDS011;37512;52.408;13.356;2024-01-15T01:11:22;8.95;;;5.15;;
45762;SDS011;37512;52.408;13.356;2024-01-15T01:15:23;10.85;;;5.97;;
45762;SDS011;37512;52.408;13.356;2024-01-15T01:19:28;10.75;;;7.07;;
45762;SDS011;37512;52.408;13.356;2024-01-15T01:23:31;9.90;;;6.00;;
45762;SDS011;37512;52.408;13.356;2024-01-15T01:27:33;13.95;;;6.47;;
45762;SDS011;37512;52.408;13.356;2024-01-15T01:31:35;7.85;;;5.70;;
45762;SDS011;37512;52.408;13.356;2024-01-15T01:35:36;11.10;;;7.38;;
45762;SDS011;37512;52.408;13.356;2024-01-15T01:39:38;9.65;;;5.78;;
45762;SDS011;37512;52.408;13.356;2024-01-15T01:43:43;15.13;;;8.63;;
45762;SDS011;37512;52.408;13.356;2024-01-15T01:47:45;13.27;;;7.90;;
45762;SDS011;37512;52.408;13.356;2024-01-15T01:51:50;10.73;;;7.43;;
45762;SDS011;37512;52.408;13.356;2024-01-15T01:55:54;12.23;;;8.00;;
45762;SDS011;37512;52.408;13.356;2024-01-15T01:59:59;13.10;;;8.00;;
45762;SDS011;37512;52.408;13.356;2024-01-15T02:04:01;12.02;;;6.50;;
45762;SDS011;37512;52.408;13.356;2024-01-15T02:08:03;14.05;;;8.15;;
45762;SDS011;37512;52.408;13.356;2024-01-15T02:12:05;15.70;;;7.35;;
45762;SDS011;37512;52.408;13.356;2024-01-15T02:16:07;8.52;;;5.57;;
45762;SDS011;37512;52.408;13.356;2024-01-15T02:20:09;13.23;;;6.60;;
45762;SDS011;37512;52.408;13.356;2024-01-15T02:24:12;9.45;;;5.80;;
45762;SDS011;37512;52.408;13.356;2024-01-15T02:28:15;15.10;;;9.07;;
45762;SDS011;37512;52.408;13.356;2024-01-15T02:32:19;10.63;;;6.60;;
45762;SDS011;37512;52.408;13.356;2024-01-15T02:36:20;15.75;;;6.93;;
45762;SDS011;37512;52.408;13.356;2024-01-15T02:40:22;9.63;;;6.50;;
45762;SDS011;37512;52.408;13.356;2024-01-15T02:44:26;12.80;;;6.75;;
45762;SDS011;37512;52.408;13.356;2024-01-15T02:48:28;9.63;;;6.63;;
45762;SDS011;37512;52.408;13.356;2024-01-15T02:52:29;12.05;;;7.07;;
45762;SDS011;37512;52.408;13.356;2024-01-15T02:56:31;11.30;;;5.18;;
45762;SDS011;37512;52.408;13.356;2024-01-15T03:00:32;8.38;;;5.30;;
45762;SDS011;37512;52.408;13.356;2024-01-15T03:04:37;7.18;;;4.10;;
45762;SDS011;37512;52.408;13.356;2024-01-15T03:08:38;8.00;;;5.43;;
45762;SDS011;37512;52.408;13.356;2024-01-15T03:12:40;9.50;;;5.68;;
45762;SDS011;37512;52.408;13.356;2024-01-15T03:16:42;9.05;;;6.15;;
45762;SDS011;37512;52.408;13.356;2024-01-15T03:20:43;10.60;;;5.25;;
45762;SDS011;37512;52.408;13.356;2024-01-15T03:24:45;7.50;;;3.97;;
45762;SDS011;37512;52.408;13.356;2024-01-15T03:28:49;4.55;;;3.22;;
45762;SDS011;37512;52.408;13.356;2024-01-15T03:32:51;6.25;;;3.67;;
45762;SDS011;37512;52.408;13.356;2024-01-15T03:36:52;8.50;;;5.07;;
45762;SDS011;37512;52.408;13.356;2024-01-15T03:40:56;8.40;;;5.10;;
45762;SDS011;37512;52.408;13.356;2024-01-15T03:44:58;6.38;;;3.25;;
45762;SDS011;37512;52.408;13.356;2024-01-15T03:49:00;7.30;;;3.72;;
45762;SDS011;37512;52.408;13.356;2024-01-15T03:53:01;7.05;;;4.32;;
45762;SDS011;37512;52.408;13.356;2024-01-15T03:57:03;6.53;;;4.28;;
45762;SDS011;37512;52.408;13.356;2024-01-15T04:01:07;16.10;;;5.00;;
45762;SDS011;37512;52.408;13.356;2024-01-15T04:05:11;7.60;;;4.45;;
45762;SDS011;37512;52.408;13.356;2024-01-15T04:09:12;6.00;;;3.95;;
45762;SDS011;37512;52.408;13.356;2024-01-15T04:13:15;6.13;;;3.38;;
45762;SDS011;37512;52.408;13.356;2024-01-15T04:17:16;18.90;;;5.22;;
45762;SDS011;37512;52.408;13.356;2024-01-15T04:21:19;6.35;;;3.30;;
45762;SDS011;37512;52.408;13.356;2024-01-15T04:25:20;8.52;;;3.63;;
45762;SDS011;37512;52.408;13.356;2024-01-15T04:29:22;9.23;;;3.33;;
45762;SDS011;37512;52.408;13.356;2024-01-15T04:33:23;6.75;;;3.22;;
45762;SDS011;37512;52.408;13.356;2024-01-15T04:37:25;5.75;;;3.72;;
45762;SDS011;37512;52.408;13.356;2024-01-15T04:41:27;5.13;;;3.25;;
45762;SDS011;37512;52.408;13.356;2024-01-15T04:45:28;6.38;;;4.00;;
45762;SDS011;37512;52.408;13.356;2024-01-15T04:49:31;5.25;;;2.42;;
45762;SDS011;37512;52.408;13.356;2024-01-15T04:53:35;4.90;;;3.28;;
45762;SDS011;37512;52.408;13.356;2024-01-15T04:57:37;3.97;;;2.45;;
45762;SDS011;37512;52.408;13.356;2024-01-15T05:01:39;9.10;;;4.10;;
45762;SDS011;37512;52.408;13.356;2024-01-15T05:05:41;9.23;;;3.75;;
45762;SDS011;37512;52.408;13.356;2024-01-15T05:09:45;8.93;;;3.35;;
45762;SDS011;37512;52.408;13.356;2024-01-15T05:13:47;7.07;;;2.63;;
45762;SDS011;37512;52.408;13.356;2024-01-15T05:17:48;5.95;;;2.58;;
45762;SDS011;37512;52.408;13.356;2024-01-15T05:21:50;7.93;;;3.53;;
45762;SDS011;37512;52.408;13.356;2024-01-15T05:25:52;4.32;;;2.55;;
45762;SDS011;37512;52.408;13.356;2024-01-15T05:29:53;6.57;;;3.30;;
45762;SDS011;37512;52.408;13.356;2024-01-15T05:33:55;3.50;;;2.67;;
45762;SDS011;37512;52.408;13.356;2024-01-15T05:37:59;6.35;;;3.08;;
45762;SDS011;37512;52.408;13.356;2024-01-15T05:42:00;6.05;;;2.50;;
45762;SDS011;37512;52.408;13.356;2024-01-15T05:46:02;4.85;;;2.35;;
45762;SDS011;37512;52.408;13.356;2024-01-15T05:50:04;6.50;;;2.60;;
45762;SDS011;37512;52.408;13.356;2024-01-15T05:54:13;5.00;;;2.65;;
45762;SDS011;37512;52.408;13.356;2024-01-15T05:58:15;3.85;;;2.05;;
45762;SDS011;37512;52.408;13.356;2024-01-15T06:02:16;12.48;;;3.13;;
45762;SDS011;37512;52.408;13.356;2024-01-15T06:06:21;2.85;;;1.90;;
45762;SDS011;37512;52.408;13.356;2024-01-15T06:10:28;8.65;;;2.53;;
45762;SDS011;37512;52.408;13.356;2024-01-15T06:14:30;5.22;;;2.08;;
45762;SDS011;37512;52.408;13.356;2024-01-15T06:18:34;2.95;;;1.88;;
45762;SDS011;37512;52.408;13.356;2024-01-15T06:22:36;3.70;;;2.03;;
45762;SDS011;37512;52.408;13.356;2024-01-15T06:26:40;9.70;;;2.88;;
45762;SDS011;37512;52.408;13.356;2024-01-15T06:30:42;4.32;;;2.00;;
45762;SDS011;37512;52.408;13.356;2024-01-15T06:34:44;2.88;;;1.48;;
45762;SDS011;37512;52.408;13.356;2024-01-15T06:38:46;1.85;;;1.67;;
45762;SDS011;37512;52.408;13.356;2024-01-15T06:42:50;5.07;;;1.77;;
45762;SDS011;37512;52.408;13.356;2024-01-15T06:46:52;5.13;;;1.90;;
45762;SDS011;37512;52.408;13.356;2024-01-15T06:50:54;8.77;;;1.60;;
45762;SDS011;37512;52.408;13.356;2024-01-15T06:54:56;3.15;;;1.90;;
45762;SDS011;37512;52.408;13.356;2024-01-15T06:59:00;6.22;;;1.92;;
45762;SDS011;37512;52.408;13.356;2024-01-15T07:03:01;6.28;;;2.20;;
45762;SDS011;37512;52.408;13.356;2024-01-15T07:07:06;4.85;;;1.90;;
45762;SDS011;37512;52.408;13.356;2024-01-15T07:11:09;2.67;;;1.50;;
45762;SDS011;37512;52.408;13.356;2024-01-15T07:15:11;6.65;;;2.03;;
45762;SDS011;37512;52.408;13.356;2024-01-15T07:19:15;5.32;;;1.63;;
45762;SDS011;37512;52.408;13.356;2024-01-15T07:23:17;5.85;;;1.77;;
45762;SDS011;37512;52.408;13.356;2024-01-15T07:27:24;3.15;;;1.67;;
45762;SDS011;37512;52.408;13.356;2024-01-15T07:31:29;5.70;;;1.58;;
45762;SDS011;37512;52.408;13.356;2024-01-15T07:35:31;7.63;;;1.98;;
45762;SDS011;37512;52.408;13.356;2024-01-15T07:39:33;3.60;;;1.25;;
45762;SDS011;37512;52.408;13.356;2024-01-15T07:43:35;7.25;;;2.72;;
45762;SDS011;37512;52.408;13.356;2024-01-15T07:47:40;3.65;;;1.90;;
45762;SDS011;37512;52.408;13.356;2024-01-15T07:51:44;3.67;;;1.67;;
45762;SDS011;37512;52.408;13.356;2024-01-15T07:55:49;4.18;;;1.50;;
45762;SDS011;37512;52.408;13.356;2024-01-15T07:59:52;1.83;;;1.20;;
45762;SDS011;37512;52.408;13.356;2024-01-15T08:03:54;5.20;;;1.40;;
45762;SDS011;37512;52.408;13.356;2024-01-15T08:07:56;12.68;;;2.53;;
45762;SDS011;37512;52.408;13.356;2024-01-15T08:11:59;3.55;;;1.30;;
45762;SDS011;37512;52.408;13.356;2024-01-15T08:16:01;4.72;;;1.67;;
45762;SDS011;37512;52.408;13.356;2024-01-15T08:20:03;5.43;;;2.08;;
45762;SDS011;37512;52.408;13.356;2024-01-15T08:24:07;4.20;;;2.03;;
45762;SDS011;37512;52.408;13.356;2024-01-15T08:28:10;4.80;;;2.28;;
45762;SDS011;37512;52.408;13.356;2024-01-15T08:32:12;10.85;;;3.05;;
45762;SDS011;37512;52.408;13.356;2024-01-15T08:36:17;7.65;;;2.15;;
45762;SDS011;37512;52.408;13.356;2024-01-15T08:40:19;3.08;;;1.42;;
45762;SDS011;37512;52.408;13.356;2024-01-15T08:44:21;7.18;;;1.73;;
45762;SDS011;37512;52.408;13.356;2024-01-15T08:48:23;4.63;;;1.27;;
45762;SDS011;37512;52.408;13.356;2024-01-15T08:52:24;5.57;;;1.60;;
45762;SDS011;37512;52.408;13.356;2024-01-15T08:56:26;5.85;;;1.63;;
45762;SDS011;37512;52.408;13.356;2024-01-15T09:00:28;5.50;;;1.55;;
45762;SDS011;37512;52.408;13.356;2024-01-15T09:04:30;2.78;;;1.42;;
45762;SDS011;37512;52.408;13.356;2024-01-15T09:08:32;6.57;;;1.83;;
45762;SDS011;37512;52.408;13.356;2024-01-15T09:12:34;5.43;;;2.13;;
45762;SDS011;37512;52.408;13.356;2024-01-15T09:16:35;9.05;;;2.25;;
45762;SDS011;37512;52.408;13.356;2024-01-15T09:20:37;5.43;;;2.08;;
45762;SDS011;37512;52.408;13.356;2024-01-15T09:24:40;7.80;;;2.00;;
45762;SDS011;37512;52.408;13.356;2024-01-15T09:28:43;4.72;;;1.75;;
45762;SDS011;37512;52.408;13.356;2024-01-15T09:32:44;5.53;;;1.90;;
45762;SDS011;37512;52.408;13.356;2024-01-15T09:36:46;10.13;;;2.10;;
45762;SDS011;37512;52.408;13.356;2024-01-15T09:40:49;3.45;;;1.50;;
45762;SDS011;37512;52.408;13.356;2024-01-15T09:44:51;10.82;;;2.25;;
45762;SDS011;37512;52.408;13.356;2024-01-15T09:48:54;3.10;;;1.60;;
45762;SDS011;37512;52.408;13.356;2024-01-15T09:52:56;2.97;;;1.48;;
45762;SDS011;37512;52.408;13.356;2024-01-15T09:56:59;3.92;;;1.90;;
45762;SDS011;37512;52.408;13.356;2024-01-15T10:01:02;5.18;;;1.58;;
45762;SDS011;37512;52.408;13.356;2024-01-15T10:05:09;6.82;;;1.85;;
45762;SDS011;37512;52.408;13.356;2024-01-15T10:09:12;6.10;;;1.85;;
45762;SDS011;37512;52.408;13.356;2024-01-15T10:13:15;4.88;;;1.80;;
45762;SDS011;37512;52.408;13.356;2024-01-15T10:17:17;4.90;;;2.10;;
45762;SDS011;37512;52.408;13.356;2024-01-15T10:21:19;3.42;;;1.92;;
45762;SDS011;37512;52.408;13.356;2024-01-15T10:25:20;3.78;;;1.75;;
45762;SDS011;37512;52.408;13.356;2024-01-15T10:29:26;8.05;;;1.98;;
45762;SDS011;37512;52.408;13.356;2024-01-15T10:33:28;5.80;;;1.48;;
45762;SDS011;37512;52.408;13.356;2024-01-15T10:37:34;2.88;;;1.80;;
45762;SDS011;37512;52.408;13.356;2024-01-15T10:41:36;3.25;;;1.83;;
45762;SDS011;37512;52.408;13.356;2024-01-15T10:45:38;4.10;;;1.33;;
45762;SDS011;37512;52.408;13.356;2024-01-15T10:49:39;4.88;;;1.55;;
45762;SDS011;37512;52.408;13.356;2024-01-15T10:53:44;2.50;;;1.25;;
45762;SDS011;37512;52.408;13.356;2024-01-15T10:57:47;4.22;;;1.50;;
45762;SDS011;37512;52.408;13.356;2024-01-15T11:01:51;2.03;;;1.45;;
45762;SDS011;37512;52.408;13.356;2024-01-15T11:05:57;3.88;;;2.17;;
45762;SDS011;37512;52.408;13.356;2024-01-15T11:10:02;4.28;;;1.85;;
45762;SDS011;37512;52.408;13.356;2024-01-15T11:14:06;2.78;;;1.38;;
45762;SDS011;37512;52.408;13.356;2024-01-15T11:18:08;2.70;;;1.50;;
45762;SDS011;37512;52.408;13.356;2024-01-15T11:30:46;1.00;;;0.90;;
45762;SDS011;37512;52.408;13.356;2024-01-15T11:34:59;5.07;;;1.40;;
45762;SDS011;37512;52.408;13.356;2024-01-15T11:43:28;2.25;;;1.48;;
45762;SDS011;37512;52.408;13.356;2024-01-15T11:47:41;4.90;;;1.90;;
45762;SDS011;37512;52.408;13.356;2024-01-15T11:52:06;5.18;;;2.13;;
45762;SDS011;37512;52.408;13.356;2024-01-15T11:56:14;1.20;;;1.00;;
45762;SDS011;37512;52.408;13.356;2024-01-15T12:00:18;2.67;;;1.77;;
45762;SDS011;37512;52.408;13.356;2024-01-15T12:04:26;3.67;;;1.50;;
45762;SDS011;37512;52.408;13.356;2024-01-15T12:08:28;4.75;;;1.60;;
45762;SDS011;37512;52.408;13.356;2024-01-15T12:12:37;0.85;;;0.85;;
45762;SDS011;37512;52.408;13.356;2024-01-15T12:16:41;2.75;;;1.55;;
45762;SDS011;37512;52.408;13.356;2024-01-15T12:20:43;1.67;;;1.50;;
45762;SDS011;37512;52.408;13.356;2024-01-15T12:24:48;1.95;;;1.40;;
45762;SDS011;37512;52.408;13.356;2024-01-15T12:28:50;2.22;;;1.20;;
45762;SDS011;37512;52.408;13.356;2024-01-15T12:32:54;3.88;;;1.67;;
45762;SDS011;37512;52.408;13.356;2024-01-15T12:36:57;3.13;;;1.70;;
45762;SDS011;37512;52.408;13.356;2024-01-15T12:41:00;2.13;;;1.10;;
45762;SDS011;37512;52.408;13.356;2024-01-15T12:45:02;2.13;;;1.40;;
45762;SDS011;37512;52.408;13.356;2024-01-15T12:49:05;2.58;;;1.10;;
45762;SDS011;37512;52.408;13.356;2024-01-15T12:53:07;2.53;;;1.10;;
45762;SDS011;37512;52.408;13.356;2024-01-15T12:57:09;3.22;;;1.30;;
45762;SDS011;37512;52.408;13.356;2024-01-15T13:01:10;2.83;;;1.73;;
45762;SDS011;37512;52.408;13.356;2024-01-15T13:05:12;1.90;;;1.50;;
45762;SDS011;37512;52.408;13.356;2024-01-15T13:09:16;1.30;;;0.98;;
45762;SDS011;37512;52.408;13.356;2024-01-15T13:13:18;2.65;;;1.73;;
45762;SDS011;37512;52.408;13.356;2024-01-15T13:17:20;2.50;;;1.77;;
45762;SDS011;37512;52.408;13.356;2024-01-15T13:21:22;2.65;;;2.00;;
45762;SDS011;37512;52.408;13.356;2024-01-15T13:25:25;1.27;;;1.05;;
45762;SDS011;37512;52.408;13.356;2024-01-15T13:29:27;5.85;;;2.78;;
45762;SDS011;37512;52.408;13.356;2024-01-15T13:33:28;5.55;;;2.03;;
45762;SDS011;37512;52.408;13.356;2024-01-15T13:37:30;3.72;;;2.13;;
45762;SDS011;37512;52.408;13.356;2024-01-15T13:41:31;2.95;;;2.30;;
45762;SDS011;37512;52.408;13.356;2024-01-15T13:45:33;7.53;;;2.05;;
45762;SDS011;37512;52.408;13.356;2024-01-15T13:49:36;2.70;;;1.58;;
45762;SDS011;37512;52.408;13.356;2024-01-15T13:53:38;7.05;;;2.67;;
45762;SDS011;37512;52.408;13.356;2024-01-15T13:57:45;4.93;;;1.85;;
45762;SDS011;37512;52.408;13.356;2024-01-15T14:01:47;8.20;;;2.50;;
45762;SDS011;37512;52.408;13.356;2024-01-15T14:05:48;4.80;;;2.45;;
45762;SDS011;37512;52.408;13.356;2024-01-15T14:09:52;5.60;;;2.05;;
45762;SDS011;37512;52.408;13.356;2024-01-15T14:13:53;1.58;;;1.35;;
45762;SDS011;37512;52.408;13.356;2024-01-15T14:17:58;5.88;;;2.63;;
45762;SDS011;37512;52.408;13.356;2024-01-15T14:22:00;2.55;;;1.30;;
45762;SDS011;37512;52.408;13.356;2024-01-15T14:26:02;3.90;;;2.17;;
45762;SDS011;37512;52.408;13.356;2024-01-15T14:30:05;1.83;;;1.23;;
45762;SDS011;37512;52.408;13.356;2024-01-15T14:34:09;4.32;;;2.03;;
45762;SDS011;37512;52.408;13.356;2024-01-15T14:38:12;6.70;;;3.13;;
45762;SDS011;37512;52.408;13.356;2024-01-15T14:42:14;4.32;;;1.35;;
45762;SDS011;37512;52.408;13.356;2024-01-15T14:46:15;5.10;;;1.95;;
45762;SDS011;37512;52.408;13.356;2024-01-15T14:50:17;4.00;;;1.67;;
45762;SDS011;37512;52.408;13.356;2024-01-15T14:54:19;3.85;;;1.67;;
45762;SDS011;37512;52.408;13.356;2024-01-15T14:58:24;3.05;;;1.60;;
45762;SDS011;37512;52.408;13.356;2024-01-15T15:02:26;3.33;;;1.52;;
45762;SDS011;37512;52.408;13.356;2024-01-15T15:06:32;2.08;;;1.25;;
45762;SDS011;37512;52.408;13.356;2024-01-15T15:10:37;4.30;;;1.50;;
45762;SDS011;37512;52.408;13.356;2024-01-15T15:14:39;4.80;;;1.83;;
45762;SDS011;37512;52.408;13.356;2024-01-15T15:18:56;1.67;;;1.15;;
45762;SDS011;37512;52.408;13.356;2024-01-15T15:22:57;2.75;;;1.63;;
45762;SDS011;37512;52.408;13.356;2024-01-15T15:27:04;2.00;;;1.45;;
45762;SDS011;37512;52.408;13.356;2024-01-15T15:31:09;2.30;;;1.35;;
45762;SDS011;37512;52.408;13.356;2024-01-15T15:35:12;5.15;;;1.67;;
45762;SDS011;37512;52.408;13.356;2024-01-15T15:39:14;3.42;;;1.80;;
45762;SDS011;37512;52.408;13.356;2024-01-15T15:43:19;3.28;;;1.70;;
45762;SDS011;37512;52.408;13.356;2024-01-15T15:47:20;7.30;;;1.73;;
45762;SDS011;37512;52.408;13.356;2024-01-15T15:51:22;1.95;;;1.10;;
45762;SDS011;37512;52.408;13.356;2024-01-15T15:55:24;6.15;;;1.95;;
45762;SDS011;37512;52.408;13.356;2024-01-15T15:59:26;1.77;;;1.00;;
45762;SDS011;37512;52.408;13.356;2024-01-15T16:03:28;1.88;;;1.50;;
45762;SDS011;37512;52.408;13.356;2024-01-15T16:07:29;3.10;;;2.00;;
45762;SDS011;37512;52.408;13.356;2024-01-15T16:11:31;3.47;;;2.00;;
45762;SDS011;37512;52.408;13.356;2024-01-15T16:15:35;5.72;;;1.73;;
45762;SDS011;37512;52.408;13.356;2024-01-15T16:19:37;6.82;;;2.05;;
45762;SDS011;37512;52.408;13.356;2024-01-15T16:24:00;5.75;;;2.10;;
45762;SDS011;37512;52.408;13.356;2024-01-15T16:28:24;7.63;;;2.25;;
45762;SDS011;37512;52.408;13.356;2024-01-15T16:32:26;6.50;;;2.38;;
45762;SDS011;37512;52.408;13.356;2024-01-15T16:36:30;3.72;;;2.08;;
45762;SDS011;37512;52.408;13.356;2024-01-15T16:40:32;5.38;;;2.05;;
45762;SDS011;37512;52.408;13.356;2024-01-15T16:44:35;3.65;;;2.10;;
45762;SDS011;37512;52.408;13.356;2024-01-15T16:48:37;4.32;;;1.98;;
45762;SDS011;37512;52.408;13.356;2024-01-15T16:52:39;5.97;;;2.17;;
45762;SDS011;37512;52.408;13.356;2024-01-15T16:56:41;1.10;;;1.00;;
45762;SDS011;37512;52.408;13.356;2024-01-15T17:00:43;5.70;;;2.10;;
45762;SDS011;37512;52.408;13.356;2024-01-15T17:04:44;4.90;;;1.90;;
45762;SDS011;37512;52.408;13.356;2024-01-15T17:08:46;7.68;;;2.10;;
45762;SDS011;37512;52.408;13.356;2024-01-15T17:12:47;1.83;;;1.45;;
45762;SDS011;37512;52.408;13.356;2024-01-15T17:16:51;5.72;;;2.28;;
45762;SDS011;37512;52.408;13.356;2024-01-15T17:20:53;4.60;;;2.10;;
45762;SDS011;37512;52.408;13.356;2024-01-15T17:24:54;4.18;;;2.13;;
45762;SDS011;37512;52.408;13.356;2024-01-15T17:28:56;6.70;;;2.22;;
45762;SDS011;37512;52.408;13.356;2024-01-15T17:32:57;5.05;;;2.95;;
45762;SDS011;37512;52.408;13.356;2024-01-15T17:36:59;4.70;;;3.15;;
45762;SDS011;37512;52.408;13.356;2024-01-15T17:41:03;5.30;;;1.92;;
45762;SDS011;37512;52.408;13.356;2024-01-15T17:45:05;5.22;;;2.13;;
45762;SDS011;37512;52.408;13.356;2024-01-15T17:49:08;7.05;;;2.60;;
45762;SDS011;37512;52.408;13.356;2024-01-15T17:53:10;8.10;;;2.20;;
45762;SDS011;37512;52.408;13.356;2024-01-15T17:57:12;7.20;;;2.42;;
45762;SDS011;37512;52.408;13.356;2024-01-15T18:01:17;4.28;;;2.28;;
45762;SDS011;37512;52.408;13.356;2024-01-15T18:05:20;6.03;;;2.70;;
45762;SDS011;37512;52.408;13.356;2024-01-15T18:09:22;6.10;;;2.83;;
45762;SDS011;37512;52.408;13.356;2024-01-15T18:13:23;1.85;;;1.45;;
45762;SDS011;37512;52.408;13.356;2024-01-15T18:17:25;6.55;;;3.03;;
45762;SDS011;37512;52.408;13.356;2024-01-15T18:21:28;3.28;;;1.60;;
45762;SDS011;37512;52.408;13.356;2024-01-15T18:25:29;3.60;;;2.15;;
45762;SDS011;37512;52.408;13.356;2024-01-15T18:29:31;2.60;;;2.10;;
45762;SDS011;37512;52.408;13.356;2024-01-15T18:33:34;4.18;;;2.97;;
45762;SDS011;37512;52.408;13.356;2024-01-15T18:37:40;2.42;;;1.90;;
45762;SDS011;37512;52.408;13.356;2024-01-15T18:41:45;6.50;;;2.88;;
45762;SDS011;37512;52.408;13.356;2024-01-15T18:45:47;6.72;;;3.30;;
45762;SDS011;37512;52.408;13.356;2024-01-15T18:49:48;6.07;;;2.08;;
45762;SDS011;37512;52.408;13.356;2024-01-15T18:53:52;8.68;;;3.22;;
45762;SDS011;37512;52.408;13.356;2024-01-15T18:57:53;9.45;;;3.65;;
45762;SDS011;37512;52.408;13.356;2024-01-15T19:01:58;5.35;;;2.90;;
45762;SDS011;37512;52.408;13.356;2024-01-15T19:05:59;4.53;;;2.20;;
45762;SDS011;37512;52.408;13.356;2024-01-15T19:10:01;5.18;;;3.28;;
45762;SDS011;37512;52.408;13.356;2024-01-15T19:14:02;4.75;;;3.30;;
45762;SDS011;37512;52.408;13.356;2024-01-15T19:18:04;6.20;;;3.65;;
45762;SDS011;37512;52.408;13.356;2024-01-15T19:22:07;6.43;;;3.15;;
45762;SDS011;37512;52.408;13.356;2024-01-15T19:26:21;6.05;;;2.55;;
45762;SDS011;37512;52.408;13.356;2024-01-15T19:30:23;4.88;;;2.50;;
45762;SDS011;37512;52.408;13.356;2024-01-15T19:34:24;4.03;;;1.75;;
45762;SDS011;37512;52.408;13.356;2024-01-15T19:38:26;11.27;;;2.42;;
45762;SDS011;37512;52.408;13.356;2024-01-15T19:42:35;3.78;;;1.98;;
45762;SDS011;37512;52.408;13.356;2024-01-15T19:46:37;4.07;;;1.83;;
45762;SDS011;37512;52.408;13.356;2024-01-15T19:50:41;4.20;;;1.60;;
45762;SDS011;37512;52.408;13.356;2024-01-15T19:54:47;8.77;;;1.85;;
45762;SDS011;37512;52.408;13.356;2024-01-15T19:58:48;2.92;;;1.52;;
45762;SDS011;37512;52.408;13.356;2024-01-15T20:02:50;3.88;;;1.45;;
45762;SDS011;37512;52.408;13.356;2024-01-15T20:06:51;9.82;;;2.13;;
45762;SDS011;37512;52.408;13.356;2024-01-15T20:10:56;4.60;;;1.95;;
45762;SDS011;37512;52.408;13.356;2024-01-15T20:15:02;4.40;;;1.88;;
45762;SDS011;37512;52.408;13.356;2024-01-15T20:19:04;3.55;;;1.60;;
45762;SDS011;37512;52.408;13.356;2024-01-15T20:23:07;7.20;;;3.08;;
45762;SDS011;37512;52.408;13.356;2024-01-15T20:27:10;4.18;;;1.73;;
45762;SDS011;37512;52.408;13.356;2024-01-15T20:31:15;5.97;;;1.65;;
45762;SDS011;37512;52.408;13.356;2024-01-15T20:35:24;9.55;;;2.33;;
45762;SDS011;37512;52.408;13.356;2024-01-15T20:39:28;3.15;;;1.50;;
45762;SDS011;37512;52.408;13.356;2024-01-15T20:43:30;6.57;;;2.40;;
45762;SDS011;37512;52.408;13.356;2024-01-15T20:47:32;4.75;;;2.03;;
45762;SDS011;37512;52.408;13.356;2024-01-15T20:51:39;1.88;;;0.95;;
45762;SDS011;37512;52.408;13.356;2024-01-15T20:55:40;4.03;;;1.70;;
45762;SDS011;37512;52.408;13.356;2024-01-15T20:59:42;6.82;;;1.75;;
45762;SDS011;37512;52.408;13.356;2024-01-15T21:03:44;3.53;;;1.70;;
45762;SDS011;37512;52.408;13.356;2024-01-15T21:07:48;5.65;;;2.50;;
45762;SDS011;37512;52.408;13.356;2024-01-15T21:11:51;8.05;;;2.15;;
45762;SDS011;37512;52.408;13.356;2024-01-15T21:15:53;3.75;;;2.47;;
45762;SDS011;37512;52.408;13.356;2024-01-15T21:19:54;6.15;;;2.03;;
45762;SDS011;37512;52.408;13.356;2024-01-15T21:23:59;4.13;;;1.88;;
45762;SDS011;37512;52.408;13.356;2024-01-15T21:28:01;8.65;;;2.33;;
45762;SDS011;37512;52.408;13.356;2024-01-15T21:32:03;3.92;;;2.00;;
45762;SDS011;37512;52.408;13.356;2024-01-15T21:36:05;4.50;;;1.60;;
45762;SDS011;37512;52.408;13.356;2024-01-15T21:40:07;5.50;;;1.75;;
45762;SDS011;37512;52.408;13.356;2024-01-15T21:44:11;3.83;;;1.90;;
45762;SDS011;37512;52.408;13.356;2024-01-15T21:48:13;4.28;;;1.70;;
45762;SDS011;37512;52.408;13.356;2024-01-15T21:52:15;9.80;;;2.50;;
45762;SDS011;37512;52.408;13.356;2024-01-15T21:56:18;4.50;;;1.48;;
45762;SDS011;37512;52.408;13.356;2024-01-15T22:00:22;3.00;;;1.35;;
45762;SDS011;37512;52.408;13.356;2024-01-15T22:04:24;2.83;;;1.63;;
45762;SDS011;37512;52.408;13.356;2024-01-15T22:08:25;3.60;;;1.48;;
45762;SDS011;37512;52.408;13.356;2024-01-15T22:12:27;2.85;;;1.67;;
45762;SDS011;37512;52.408;13.356;2024-01-15T22:16:29;5.93;;;2.03;;
45762;SDS011;37512;52.408;13.356;2024-01-15T22:20:32;2.55;;;1.52;;
45762;SDS011;37512;52.408;13.356;2024-01-15T22:24:36;10.48;;;1.70;;
45762;SDS011;37512;52.408;13.356;2024-01-15T22:28:39;3.85;;;1.33;;
45762;SDS011;37512;52.408;13.356;2024-01-15T22:32:43;6.85;;;1.83;;
45762;SDS011;37512;52.408;13.356;2024-01-15T22:36:45;4.38;;;2.03;;
45762;SDS011;37512;52.408;13.356;2024-01-15T22:40:46;4.68;;;1.98;;
45762;SDS011;37512;52.408;13.356;2024-01-15T22:44:48;5.07;;;1.73;;
45762;SDS011;37512;52.408;13.356;2024-01-15T22:48:50;5.95;;;1.75;;
45762;SDS011;37512;52.408;13.356;2024-01-15T22:52:54;2.60;;;1.33;;
45762;SDS011;37512;52.408;13.356;2024-01-15T22:56:55;9.23;;;1.83;;
45762;SDS011;37512;52.408;13.356;2024-01-15T23:01:00;2.47;;;1.58;;
45762;SDS011;37512;52.408;13.356;2024-01-15T23:05:01;3.75;;;2.00;;
45762;SDS011;37512;52.408;13.356;2024-01-15T23:09:03;4.43;;;1.75;;
45762;SDS011;37512;52.408;13.356;2024-01-15T23:13:08;7.13;;;1.95;;
45762;SDS011;37512;52.408;13.356;2024-01-15T23:17:10;3.28;;;1.70;;
45762;SDS011;37512;52.408;13.356;2024-01-15T23:21:11;5.38;;;1.73;;
45762;SDS011;37512;52.408;13.356;2024-01-15T23:25:14;7.82;;;1.75;;
45762;SDS011;37512;52.408;13.356;2024-01-15T23:29:15;3.75;;;1.63;;
45762;SDS011;37512;52.408;13.356;2024-01-15T23:33:17;10.05;;;2.78;;
45762;SDS011;37512;52.408;13.356;2024-01-15T23:37:19;5.97;;;1.80;;
45762;SDS011;37512;52.408;13.356;2024-01-15T23:41:20;4.57;;;1.80;;
45762;SDS011;37512;52.408;13.356;2024-01-15T23:45:22;3.90;;;2.00;;
45762;SDS011;37512;52.408;13.356;2024-01-15T23:49:24;7.18;;;2.30;;
45762;SDS011;37512;52.408;13.356;2024-01-15T23:53:25;5.22;;;1.90;;
45762;SDS011;37512;52.408;13.356;2024-01-15T23:57:27;3.75;;;1.77;;
